Terminal Aerodrome Forecast
Issued by NWS

Home | Current Version | Previous Version | Text Only | Print | Product List | Glossary On
Versions: 1 2 3 4 5 6 7 8 9 10 11 12 13 14 15 16 17 18 19 20 21 22 23 24 25 26 27 28 29 30 31 32 33 34
000
FTUS46 KOTX 041610 AAB
TAFPUW
TAF AMD
KPUW 041610Z 0416/0512 VRB03KT 6SM HZ BR SCT015 SCT200
     FM041800 36006KT P6SM SCT070 SCT150
     FM050200 34010KT P6SM VCSH SCT050 BKN070 OVC100
     FM050600 26010KT P6SM -SHRA SCT015 BKN050 OVC090
     FM050800 27007KT P6SM -RA BKN015 OVC040=

USA.gov is the U.S. government's official web portal to all federal, state and local government web resources and services.